Terminal Aerodrome Forecast
Issued by NWS

Home | Current Version | Previous Version | Text Only | Print | Product List | Glossary On
Versions: 1 2 3 4 5 6 7 8 9 10 11 12 13 14 15
000
FTUS44 KBMX 251138
TAFANB
TAF
KANB 251138Z 2512/2612 06004KT P6SM SCT021 BKN120
      TEMPO 2512/2514 BKN020
     FM251800 14006KT 5SM SHRA VCTS SCT020 BKN040CB
     FM252000 17006KT 3SM TSRA BKN020CB
     FM252200 19006KT P6SM SHRA VCTS SCT025 BKN040CB=

USA.gov is the U.S. government's official web portal to all federal, state and local government web resources and services.